createdAt,value
2022-11-04T01:42:01.845Z,69.93
2022-11-04T06:02:56.920Z,72.25
2022-11-04T06:16:09.298Z,72.47
2022-11-04T06:32:21.174Z,72.76
2022-11-04T06:38:11.993Z,72.63
2022-11-04T06:40:45.894Z,72.73
2022-11-04T06:43:21.139Z,72.82
2022-11-04T06:46:01.019Z,73.07
2022-11-04T06:48:36.593Z,72.91
2022-11-04T06:51:16.431Z,72.83
2022-11-04T06:54:12.293Z,72.67
2022-11-04T06:56:47.095Z,72.87
2022-11-04T06:59:19.146Z,72.94
2022-11-04T07:01:49.431Z,72.76
2022-11-04T07:04:39.110Z,72.82
2022-11-04T07:07:15.182Z,72.80
2022-11-04T07:09:43.309Z,72.90
2022-11-04T07:12:21.903Z,72.68
2022-11-04T07:14:52.191Z,72.66
2022-11-04T07:17:27.564Z,72.83
2022-11-04T07:20:03.205Z,72.94
2022-11-04T07:22:42.537Z,72.90
2022-11-04T07:25:19.575Z,72.98
2022-11-04T07:31:20.259Z,72.91
2022-11-04T07:33:55.525Z,72.90
2022-11-04T07:36:32.808Z,72.87
2022-11-04T07:39:02.346Z,72.86
2022-11-04T07:41:48.604Z,72.97
2022-11-04T07:44:16.178Z,73.03
2022-11-04T07:47:11.565Z,73.04
2022-11-04T07:49:44.852Z,73.00
2022-11-04T07:52:21.761Z,73.18
2022-11-04T07:54:56.897Z,73.02
2022-11-04T07:57:35.691Z,73.04
2022-11-04T08:00:07.037Z,72.81
2022-11-04T08:02:46.546Z,72.79
2022-11-04T08:05:15.599Z,72.91
2022-11-04T08:07:57.647Z,73.00
2022-11-04T08:10:32.193Z,72.94
2022-11-04T08:13:11.519Z,72.97
2022-11-04T08:16:15.480Z,72.98
2022-11-04T08:18:48.514Z,72.84
2022-11-04T08:21:22.115Z,73.03
2022-11-04T08:24:14.537Z,73.04
2022-11-04T08:26:42.169Z,73.07
2022-11-04T08:29:28.737Z,73.05
2022-11-04T08:31:59.614Z,73.06
2022-11-04T08:34:36.335Z,73.12
2022-11-04T08:37:15.244Z,73.01
2022-11-04T08:42:17.386Z,73.07
2022-11-04T08:44:52.638Z,73.08
2022-11-04T08:47:21.258Z,73.11
2022-11-04T08:49:58.190Z,73.11
2022-11-04T08:52:34.215Z,73.10
2022-11-04T08:55:03.406Z,73.08
2022-11-04T08:57:31.574Z,73.08
2022-11-04T09:00:03.290Z,73.14
2022-11-04T09:02:32.950Z,73.10
2022-11-04T09:05:04.117Z,73.23
2022-11-04T09:07:35.233Z,73.23
2022-11-04T09:10:05.659Z,73.27
2022-11-04T09:12:35.660Z,73.30
2022-11-04T09:15:07.779Z,73.31
2022-11-04T09:17:36.824Z,73.40
2022-11-04T09:20:06.049Z,73.36
2022-11-04T09:23:02.004Z,73.30
2022-11-04T09:25:29.465Z,73.29
2022-11-04T09:27:59.518Z,73.62
2022-11-04T09:30:29.792Z,73.63
2022-11-04T09:33:01.510Z,73.57
2022-11-04T09:35:30.753Z,73.55
2022-11-04T09:38:00.984Z,73.66
2022-11-04T09:40:30.050Z,73.41
2022-11-04T09:43:32.763Z,73.57
2022-11-04T09:46:04.408Z,73.56
2022-11-04T09:48:41.684Z,73.60
2022-11-04T09:51:32.652Z,73.86
2022-11-04T09:54:10.610Z,73.77
2022-11-04T09:56:46.797Z,73.83
2022-11-04T09:59:20.748Z,73.90
2022-11-04T10:01:53.146Z,73.92
2022-11-04T10:04:46.995Z,74.11
2022-11-04T10:07:33.761Z,73.78
2022-11-04T10:10:12.210Z,73.94
2022-11-04T10:13:03.775Z,73.85
2022-11-04T10:15:53.891Z,73.93
2022-11-04T10:18:39.232Z,74.01
2022-11-04T10:21:50.206Z,73.92
2022-11-04T10:24:22.081Z,73.98
2022-11-04T10:27:01.213Z,73.98
2022-11-04T10:29:50.219Z,74.00
2022-11-04T10:32:24.992Z,73.92
2022-11-04T10:35:05.863Z,73.84
2022-11-04T10:37:35.629Z,73.86
2022-11-04T10:40:25.524Z,73.90
2022-11-04T10:42:55.782Z,73.73
2022-11-04T10:46:00.152Z,73.73
2022-11-04T10:49:01.835Z,73.73
2022-11-04T10:51:50.682Z,73.70
2022-11-04T10:54:19.977Z,73.72
2022-11-04T10:56:56.377Z,73.67
2022-11-04T10:59:56.481Z,73.78
2022-11-04T11:02:54.372Z,73.77
2022-11-04T11:05:49.290Z,72.80
2022-11-04T11:08:51.346Z,71.45
2022-11-04T11:11:38.587Z,71.11
2022-11-04T11:14:20.872Z,70.69
2022-11-04T11:16:48.604Z,70.13
2022-11-04T11:19:24.838Z,70.00
2022-11-04T11:21:55.801Z,69.23
2022-11-04T11:24:30.782Z,69.38
2022-11-04T11:27:03.788Z,70.09
2022-11-04T11:29:40.241Z,70.54
2022-11-04T11:32:44.100Z,70.44
2022-11-04T11:35:18.438Z,70.60
2022-11-04T11:37:48.546Z,70.62
2022-11-04T11:40:33.484Z,71.26
2022-11-04T11:43:05.753Z,71.47
2022-11-04T11:45:37.237Z,71.60
2022-11-04T11:48:31.384Z,71.72
2022-11-04T11:51:01.023Z,71.99
2022-11-04T11:53:29.968Z,71.97
2022-11-04T11:56:51.722Z,72.14
2022-11-04T12:03:10.049Z,71.67
2022-11-04T12:09:16.674Z,71.09
2022-11-04T12:12:34.904Z,70.41
2022-11-04T12:15:22.445Z,68.77
2022-11-04T12:18:09.623Z,68.41
2022-11-04T12:21:08.816Z,68.90
2022-11-04T12:23:50.857Z,68.69
2022-11-04T12:27:15.928Z,67.28
2022-11-04T12:30:02.690Z,68.34
2022-11-04T12:33:10.745Z,68.45
2022-11-04T12:35:55.464Z,68.28
2022-11-04T12:38:43.155Z,68.15
2022-11-04T12:44:37.446Z,67.85
2022-11-04T12:47:21.828Z,67.79
2022-11-04T12:50:12.252Z,68.47
2022-11-04T12:53:06.985Z,68.48
2022-11-04T12:55:50.806Z,68.83
2022-11-04T12:58:30.894Z,68.62
2022-11-04T13:01:09.668Z,68.66
2022-11-04T13:07:09.667Z,68.96
2022-11-04T13:09:46.950Z,68.75
2022-11-04T13:12:21.809Z,68.91
2022-11-04T13:15:01.051Z,68.95
2022-11-04T13:17:35.208Z,69.22
2022-11-04T13:20:13.758Z,69.37
2022-11-04T13:22:51.524Z,69.06
2022-11-04T13:25:31.703Z,69.10
2022-11-04T13:28:02.865Z,69.22
2022-11-04T13:30:40.657Z,69.18
2022-11-04T13:33:26.943Z,69.07
2022-11-04T13:35:54.303Z,69.31
2022-11-04T13:38:45.002Z,69.37
2022-11-04T13:41:43.285Z,69.32
2022-11-04T13:44:22.873Z,69.35
2022-11-04T13:47:41.463Z,69.23
2022-11-04T13:50:38.219Z,68.87
2022-11-04T13:53:52.627Z,68.89
2022-11-04T13:56:40.074Z,68.93
2022-11-04T13:59:17.923Z,68.73
2022-11-04T14:01:47.361Z,68.70
2022-11-04T14:04:32.875Z,68.47
2022-11-04T14:07:04.990Z,68.53
2022-11-04T14:09:52.913Z,68.84
2022-11-04T14:12:30.305Z,68.83
2022-11-04T14:15:12.928Z,68.81
2022-11-04T14:17:43.100Z,68.79
2022-11-04T14:20:25.090Z,69.00
2022-11-04T14:22:57.270Z,68.95
2022-11-04T14:25:41.384Z,68.97
2022-11-04T14:28:09.550Z,68.88
2022-11-04T14:30:58.712Z,68.88
2022-11-04T14:34:03.940Z,69.05
2022-11-04T14:36:38.790Z,69.05
2022-11-04T14:39:13.651Z,69.12
2022-11-04T14:42:07.098Z,69.14
2022-11-04T14:45:08.357Z,69.31
2022-11-04T14:47:40.238Z,69.22
2022-11-04T14:50:17.124Z,69.17
2022-11-04T14:52:51.397Z,69.36
2022-11-04T14:55:43.840Z,69.28
2022-11-04T14:58:28.402Z,69.32
2022-11-04T15:01:00.656Z,69.39
2022-11-04T15:06:58.503Z,69.38
2022-11-04T15:09:52.891Z,69.32
2022-11-04T15:12:47.062Z,69.49
2022-11-04T15:15:44.433Z,69.57
2022-11-04T15:18:17.492Z,69.49
2022-11-04T15:21:04.016Z,69.44
2022-11-04T15:23:58.438Z,69.53
2022-11-04T15:26:31.924Z,69.54
2022-11-04T15:29:07.723Z,69.68
2022-11-04T15:31:38.500Z,69.70
2022-11-04T15:34:17.599Z,69.67
2022-11-04T15:36:50.100Z,69.68
2022-11-04T15:39:24.227Z,69.70
2022-11-04T15:42:22.412Z,69.80
2022-11-04T15:44:54.732Z,69.80
2022-11-04T15:47:27.030Z,69.89
2022-11-04T15:50:03.997Z,69.92
2022-11-04T15:52:40.958Z,69.86
2022-11-04T15:55:21.396Z,70.00
2022-11-04T15:58:01.341Z,70.04
2022-11-04T16:00:38.654Z,69.93
2022-11-04T16:03:07.427Z,69.96
2022-11-04T16:05:40.026Z,70.03
2022-11-04T16:08:24.185Z,70.10
2022-11-04T16:11:11.170Z,70.03
2022-11-04T16:13:42.199Z,70.20
2022-11-04T16:16:26.064Z,70.24
2022-11-04T16:22:42.138Z,70.36
2022-11-04T16:25:23.286Z,70.48
2022-11-04T16:27:54.794Z,70.44
2022-11-04T16:34:00.358Z,70.41
2022-11-04T16:40:12.661Z,70.63
2022-11-04T16:43:01.234Z,70.45
2022-11-04T16:45:34.021Z,70.58
2022-11-04T16:48:06.773Z,70.49
2022-11-04T16:50:35.335Z,70.55
2022-11-04T16:59:57.095Z,70.67
2022-11-04T17:02:33.786Z,70.79
2022-11-04T17:05:02.887Z,70.74
2022-11-04T17:07:51.650Z,70.58
2022-11-04T17:10:24.747Z,70.61
2022-11-04T17:12:56.590Z,70.69
2022-11-04T17:15:44.953Z,70.61
2022-11-04T17:18:16.292Z,70.75
2022-11-04T17:20:50.053Z,70.80
2022-11-04T17:23:21.928Z,70.74
2022-11-04T17:25:50.865Z,70.79
2022-11-04T17:28:39.865Z,70.88
2022-11-04T17:31:23.233Z,70.75
2022-11-04T17:37:33.926Z,71.03
2022-11-04T17:40:15.222Z,70.97
2022-11-04T17:43:12.576Z,70.96
2022-11-04T17:46:06.709Z,71.01
2022-11-04T17:48:35.337Z,71.08
2022-11-04T17:51:08.656Z,71.08
2022-11-04T17:56:17.106Z,71.08
2022-11-04T17:58:47.040Z,71.11
2022-11-04T18:01:17.348Z,71.18
2022-11-04T18:03:54.095Z,71.26
2022-11-04T18:06:24.338Z,71.22
2022-11-04T18:08:54.682Z,71.17
2022-11-04T18:11:48.437Z,71.13
2022-11-04T18:14:18.755Z,71.32
2022-11-04T18:16:48.653Z,71.40
2022-11-04T18:19:22.629Z,71.32
2022-11-04T18:21:56.808Z,71.39
2022-11-04T18:24:27.626Z,71.56
2022-11-04T18:26:59.352Z,71.51
2022-11-04T18:29:32.405Z,71.63
2022-11-04T18:32:02.493Z,71.49
2022-11-04T18:34:31.726Z,71.59
2022-11-04T18:37:02.823Z,71.62
2022-11-04T18:39:38.378Z,71.55
2022-11-04T18:42:09.063Z,71.59
2022-11-04T18:44:38.012Z,71.71
2022-11-04T18:47:07.308Z,71.71
2022-11-04T18:49:38.713Z,71.76
2022-11-04T18:52:07.274Z,71.73
2022-11-04T18:55:12.791Z,71.73
2022-11-04T18:57:53.614Z,71.82
2022-11-04T19:00:32.838Z,71.83
2022-11-04T19:03:02.700Z,71.86
2022-11-04T19:05:42.269Z,71.88
2022-11-04T19:08:28.804Z,71.91
2022-11-04T19:11:16.461Z,71.95
2022-11-04T19:13:58.843Z,72.03
2022-11-04T19:16:29.800Z,71.94
2022-11-04T19:19:12.528Z,71.98
2022-11-04T19:25:13.352Z,72.15
2022-11-04T19:28:11.481Z,72.09
2022-11-04T19:30:40.274Z,72.07
2022-11-04T19:33:16.094Z,72.13
2022-11-04T19:35:46.825Z,72.20
2022-11-04T19:38:18.646Z,72.15
2022-11-04T19:40:51.907Z,72.35
2022-11-04T19:43:26.932Z,72.19
2022-11-04T19:46:04.086Z,72.25
2022-11-04T19:48:36.697Z,72.31
2022-11-04T19:51:13.047Z,72.32
2022-11-04T19:53:49.669Z,72.31
2022-11-04T19:56:31.146Z,72.51
2022-11-04T19:59:06.057Z,72.50
2022-11-04T20:01:36.837Z,72.57
2022-11-04T20:04:09.861Z,72.47
2022-11-04T20:06:40.916Z,72.59
2022-11-04T20:09:11.118Z,72.56
2022-11-04T20:12:01.783Z,72.58
2022-11-04T20:14:36.562Z,72.66
2022-11-04T20:17:07.495Z,72.53
2022-11-04T20:23:25.277Z,72.77
2022-11-04T20:26:20.029Z,72.77
2022-11-04T20:28:58.268Z,72.80
2022-11-04T20:31:35.399Z,72.79
2022-11-04T20:34:32.627Z,73.00
2022-11-04T20:37:29.601Z,73.08
2022-11-04T20:40:00.001Z,73.21
2022-11-04T20:42:32.746Z,73.17
2022-11-04T20:45:01.330Z,73.12
2022-11-04T20:47:30.668Z,73.16
2022-11-04T20:50:00.264Z,73.21
2022-11-04T20:52:29.319Z,73.14
2022-11-04T20:55:01.599Z,73.25
2022-11-04T20:57:30.927Z,73.26
2022-11-04T20:59:59.350Z,73.40
2022-11-04T21:02:37.788Z,73.57
2022-11-04T21:05:06.641Z,73.59
2022-11-04T21:07:39.969Z,73.67
2022-11-04T21:10:09.334Z,73.74
2022-11-04T21:12:39.228Z,73.70
2022-11-04T21:15:37.777Z,73.89
2022-11-04T21:21:32.979Z,73.87
2022-11-04T21:24:14.915Z,74.09
2022-11-04T21:26:50.664Z,74.27
2022-11-04T21:29:39.264Z,74.24
2022-11-04T21:36:04.433Z,74.48
2022-11-04T21:38:33.727Z,74.75
2022-11-04T21:41:33.330Z,74.66
2022-11-04T21:44:04.853Z,74.96
2022-11-04T21:46:53.902Z,74.87
2022-11-04T21:49:33.603Z,74.94
2022-11-04T21:52:14.306Z,75.27
2022-11-04T21:55:31.231Z,75.03
2022-11-04T21:57:59.704Z,75.26
2022-11-04T22:00:34.869Z,75.34
2022-11-04T22:03:10.710Z,75.36
2022-11-04T22:06:10.069Z,75.58
2022-11-04T22:08:53.587Z,75.39
2022-11-04T22:11:26.896Z,75.54
2022-11-04T22:14:04.425Z,75.54
2022-11-04T22:16:35.082Z,75.77
2022-11-04T22:19:05.544Z,75.64
2022-11-04T22:21:37.961Z,75.65
2022-11-04T22:24:06.882Z,75.89
2022-11-04T22:26:38.465Z,75.71
2022-11-04T22:29:09.659Z,75.78
2022-11-04T22:31:42.744Z,75.92
2022-11-04T22:34:10.708Z,76.14
2022-11-04T22:36:46.298Z,76.15
2022-11-04T22:39:21.681Z,76.20
2022-11-04T22:41:55.469Z,76.04
2022-11-04T22:44:46.277Z,76.09
2022-11-04T22:47:22.828Z,76.23
2022-11-04T22:50:14.758Z,76.13
2022-11-04T22:52:47.717Z,76.37
2022-11-04T22:55:17.771Z,76.38
2022-11-04T22:57:53.893Z,76.29
2022-11-04T23:00:42.546Z,76.46
2022-11-04T23:03:11.136Z,76.52
2022-11-04T23:05:46.457Z,76.48
2022-11-04T23:11:58.045Z,76.77
2022-11-04T23:14:45.813Z,76.83
2022-11-04T23:17:35.973Z,76.85
2022-11-04T23:20:13.683Z,76.63
2022-11-04T23:23:00.414Z,76.84
2022-11-04T23:25:35.486Z,76.93
2022-11-04T23:28:21.474Z,76.65
2022-11-04T23:30:51.468Z,77.00
2022-11-04T23:33:47.974Z,77.07
2022-11-04T23:37:00.955Z,77.25
2022-11-04T23:39:46.877Z,76.97
2022-11-04T23:42:19.732Z,77.12
2022-11-04T23:45:26.544Z,77.15
2022-11-04T23:48:14.784Z,77.39
2022-11-04T23:51:03.302Z,77.09
2022-11-04T23:53:50.715Z,77.29
2022-11-04T23:56:39.366Z,77.51
2022-11-04T23:59:31.520Z,77.35
